Terminal Aerodrome Forecast
Issued by NWS King Salmon, AK

Home | Current Version | Previous Version | Text Only | Print | Product List | Glossary On
Versions: 1 2 3 4 5 6 7 8 9 10 11 12 13 14 15 16 17 18 19 20 21 22
000
FTAK31 PANC 261419 AAB
TAFAKN
TAF AMD
PAKN 261419Z 2614/2712 25005KT P6SM VCFG SCT002 BKN110
      TEMPO 2614/2616 3/4SM BR VV002
     FM261700 02007KT P6SM FEW010 SCT035
     FM270200 03008G15KT P6SM SCT040=

USA.gov is the U.S. government's official web portal to all federal, state and local government web resources and services.